Time;durP1;ratioP1;P1;durP2;ratioP2;P2;SDS_P1;SDS_P2;PMS_P1;PMS_P2;Temp;Humidity;BMP_temperature;BMP_pressure;BME280_temperature;BME280_humidity;BME280_pressure;Samples;Min_cycle;Max_cycle;Signal;HPM_P1;HPM_P2
2022/02/22 00:00:27;;;;;;;20.38;2.35;;;;;;;2.30;49.91;100939.56;4986997;28;20041;-82
2022/02/22 00:02:53;;;;;;;12.52;1.80;;;;;;;2.31;49.77;100931.81;4985029;28;20054;-78
2022/02/22 00:05:18;;;;;;;20.20;2.00;;;;;;;2.08;50.78;100949.09;4981883;28;20417;-79
2022/02/22 00:07:44;;;;;;;15.13;1.48;;;;;;;2.25;50.43;100955.06;4998623;28;20046;-79
2022/02/22 00:10:11;;;;;;;10.15;2.03;;;;;;;2.13;50.91;100955.09;4986771;28;20050;-80
2022/02/22 00:12:37;;;;;;;12.25;1.63;;;;;;;2.15;50.87;100963.69;4964125;28;20050;-80
2022/02/22 00:15:03;;;;;;;9.60;1.10;;;;;;;1.72;51.62;100968.97;4962561;28;20557;-78
2022/02/22 00:17:33;;;;;;;13.27;2.78;;;;;;;1.88;51.35;100978.34;4977079;28;20077;-81
2022/02/22 00:20:00;;;;;;;19.42;3.17;;;;;;;1.92;50.70;100971.50;4986254;28;20428;-77
2022/02/22 00:22:26;;;;;;;20.73;2.30;;;;;;;1.97;50.99;100984.38;5003167;28;20046;-83
2022/02/22 00:24:51;;;;;;;12.20;1.33;;;;;;;2.03;50.75;100998.09;4979564;28;20045;-80
2022/02/22 00:27:17;;;;;;;21.58;2.85;;;;;;;2.03;50.39;101002.41;4979604;28;20045;-83
2022/02/22 00:29:42;;;;;;;10.77;1.63;;;;;;;1.96;50.34;100990.41;4980459;28;20034;-81
2022/02/22 00:32:08;;;;;;;17.60;1.73;;;;;;;2.35;49.45;101003.19;4967652;28;20325;-82
2022/02/22 00:34:34;;;;;;;16.52;1.25;;;;;;;2.11;49.74;101014.41;4974293;28;20558;-79
2022/02/22 00:36:59;;;;;;;20.83;1.80;;;;;;;2.23;50.06;101022.97;4994864;28;20110;-78
2022/02/22 00:39:25;;;;;;;19.17;2.22;;;;;;;2.25;50.34;101027.28;4999484;28;20430;-83
2022/02/22 00:41:51;;;;;;;26.20;2.60;;;;;;;2.19;50.82;101023.84;4975978;28;20467;-81
2022/02/22 00:44:16;;;;;;;16.33;2.33;;;;;;;2.20;50.79;101039.31;4981889;28;20038;-78
2022/02/22 00:46:42;;;;;;;29.40;3.88;;;;;;;2.03;50.63;101030.75;4983216;28;20100;-80
2022/02/22 00:49:08;;;;;;;15.05;2.47;;;;;;;2.16;50.10;101029.88;4979560;28;20038;-81
2022/02/22 00:51:35;;;;;;;16.40;2.38;;;;;;;2.17;50.15;101038.47;4982871;28;20065;-80
2022/02/22 00:54:00;;;;;;;28.88;4.28;;;;;;;1.91;50.09;101037.66;5005110;28;20041;-81
2022/02/22 00:56:26;;;;;;;23.08;2.15;;;;;;;1.85;50.36;101042.81;4983067;28;20041;-80
2022/02/22 00:58:51;;;;;;;26.05;2.13;;;;;;;2.34;49.34;101052.19;5005726;28;20033;-81
2022/02/22 01:01:17;;;;;;;22.27;2.28;;;;;;;2.11;50.05;101049.66;4984938;28;20033;-79
2022/02/22 01:03:43;;;;;;;22.27;2.25;;;;;;;2.07;50.25;101053.97;4952744;28;20521;-81
2022/02/22 01:06:09;;;;;;;25.80;3.22;;;;;;;1.89;50.53;101060.00;4987557;28;20045;-78
2022/02/22 01:08:34;;;;;;;19.02;2.42;;;;;;;2.03;49.80;101067.72;4986984;28;20225;-81
2022/02/22 01:11:00;;;;;;;15.45;2.15;;;;;;;2.09;48.77;101069.44;4999804;28;20040;-79
2022/02/22 01:13:26;;;;;;;15.95;3.30;;;;;;;2.10;48.51;101063.41;4994738;28;20038;-80
2022/02/22 01:15:51;;;;;;;20.67;1.92;;;;;;;2.11;48.01;101067.72;4979347;28;20512;-80
2022/02/22 01:18:17;;;;;;;18.40;1.95;;;;;;;1.90;48.22;101060.84;4981477;28;20081;-81
2022/02/22 01:20:42;;;;;;;24.73;2.95;;;;;;;2.01;48.16;101073.75;4982478;28;20403;-78
2022/02/22 01:23:08;;;;;;;13.10;2.05;;;;;;;2.16;48.15;101073.72;4952097;28;20600;-80
2022/02/22 01:25:34;;;;;;;17.63;2.15;;;;;;;2.03;48.72;101072.03;4979710;28;20253;-81
2022/02/22 01:27:59;;;;;;;19.13;1.70;;;;;;;1.78;49.06;101079.78;4981512;28;20037;-82
2022/02/22 01:30:26;;;;;;;24.65;3.53;;;;;;;2.09;48.80;101087.50;4979321;28;20033;-77
2022/02/22 01:32:52;;;;;;;18.65;2.20;;;;;;;2.36;48.64;101096.88;4979777;28;20049;-81
2022/02/22 01:35:17;;;;;;;20.75;2.38;;;;;;;2.70;48.20;101112.28;4981463;28;20088;-80
2022/02/22 01:37:43;;;;;;;22.63;1.63;;;;;;;2.70;48.55;101117.44;4981540;28;20168;-80
2022/02/22 01:40:09;;;;;;;32.42;4.30;;;;;;;2.02;49.84;101121.84;4965913;28;20476;-83
2022/02/22 01:42:36;;;;;;;19.20;1.60;;;;;;;2.23;49.12;101139.91;5003676;28;20042;-79
2022/02/22 01:45:03;;;;;;;14.93;2.72;;;;;;;2.75;47.58;101141.50;4963124;28;20086;-80
2022/02/22 01:47:29;;;;;;;17.05;1.88;;;;;;;2.54;47.30;101147.59;4978994;28;20129;-80
2022/02/22 01:49:54;;;;;;;18.58;1.92;;;;;;;2.00;48.55;101154.50;4995306;28;20045;-81
2022/02/22 01:52:20;;;;;;;21.23;3.60;;;;;;;2.15;48.54;101149.34;4995895;28;20344;-79
2022/02/22 01:54:47;;;;;;;15.20;2.33;;;;;;;2.42;48.83;101161.38;4996359;28;20125;-78
2022/02/22 01:57:13;;;;;;;25.73;3.60;;;;;;;2.03;50.61;101167.41;5001763;28;20026;-80
2022/02/22 01:59:41;;;;;;;40.47;3.60;;;;;;;2.03;50.96;101159.69;4996073;28;20128;-81
2022/02/22 02:02:10;;;;;;;6.80;1.95;;;;;;;2.37;50.00;101168.25;4978248;28;20367;-79
2022/02/22 02:04:36;;;;;;;29.95;2.22;;;;;;;2.16;50.12;101166.56;4982971;28;20420;-79
2022/02/22 02:07:01;;;;;;;17.13;2.28;;;;;;;1.84;50.62;101163.94;4988744;28;20562;-78
2022/02/22 02:09:27;;;;;;;22.27;2.38;;;;;;;1.90;49.54;101169.97;4973932;28;20033;-79
2022/02/22 02:11:56;;;;;;;26.05;2.42;;;;;;;2.06;48.63;101165.69;4981766;28;20408;-81
2022/02/22 02:14:23;;;;;;;14.85;1.30;;;;;;;1.81;48.78;101174.28;4985591;28;20042;-77
2022/02/22 02:16:48;;;;;;;18.65;2.60;;;;;;;1.75;48.00;101180.25;4982297;28;20048;-81
2022/02/22 02:19:16;;;;;;;20.95;2.72;;;;;;;2.29;46.93;101188.06;4974536;28;20038;-80
2022/02/22 02:21:43;;;;;;;21.23;2.38;;;;;;;1.84;48.18;101187.16;4978929;28;20099;-81
2022/02/22 02:24:15;;;;;;;20.98;2.42;;;;;;;2.17;47.40;101188.88;4980558;28;20037;-79
2022/02/22 02:26:42;;;;;;;22.05;2.40;;;;;;;1.95;48.00;101190.59;4961350;28;20037;-81
2022/02/22 02:29:10;;;;;;;17.52;3.42;;;;;;;1.84;48.63;101211.22;4980784;28;20058;-81
2022/02/22 02:31:42;;;;;;;9.38;1.95;;;;;;;1.96;48.58;101199.22;4980929;28;20042;-78
2022/02/22 02:34:09;;;;;;;;;;;;;;;1.89;49.09;101199.19;4966459;28;20440;-78
2022/02/22 02:36:36;;;;;;;12.63;1.55;;;;;;;1.90;49.17;101200.91;4996961;28;19914;-78
2022/02/22 02:39:04;;;;;;;20.50;2.35;;;;;;;1.65;49.82;101215.47;4952262;28;20191;-81
2022/02/22 02:41:30;;;;;;;25.15;2.85;;;;;;;1.89;49.51;101211.22;4978160;28;20037;-80
2022/02/22 02:44:05;;;;;;;12.95;1.10;;;;;;;1.88;49.71;101218.09;4981510;28;20076;-80
2022/02/22 02:46:31;;;;;;;16.92;1.60;;;;;;;2.01;49.29;101210.38;4980104;28;20056;-82
2022/02/22 02:48:57;;;;;;;17.63;1.98;;;;;;;1.63;50.31;101206.03;4999789;28;20038;-81
2022/02/22 02:51:23;;;;;;;36.58;3.03;;;;;;;1.97;49.70;101211.22;4981167;28;20033;-81
2022/02/22 02:53:50;;;;;;;13.88;2.45;;;;;;;1.79;50.58;101214.63;4977092;28;20125;-81
2022/02/22 02:56:16;;;;;;;12.57;2.45;;;;;;;1.75;50.51;101206.03;4978152;28;20033;-80
2022/02/22 02:58:41;;;;;;;14.68;1.45;;;;;;;1.97;50.32;101217.25;4982080;28;20400;-78
2022/02/22 03:01:07;;;;;;;21.38;2.30;;;;;;;2.02;50.32;101209.50;4989145;28;20565;-80
2022/02/22 03:03:33;;;;;;;13.95;2.42;;;;;;;1.64;51.37;101218.03;5000078;28;20057;-79
2022/02/22 03:05:58;;;;;;;21.08;2.20;;;;;;;1.78;51.28;101231.84;4978964;28;20033;-80
2022/02/22 03:08:24;;;;;;;26.77;2.83;;;;;;;1.81;51.20;101229.25;4985194;28;20084;-76
2022/02/22 03:10:50;;;;;;;30.98;2.80;;;;;;;2.28;49.93;101237.91;4997176;28;20072;-80
2022/02/22 03:13:15;;;;;;;22.77;2.58;;;;;;;2.23;50.20;101239.63;4986099;28;20056;-80
2022/02/22 03:15:41;;;;;;;27.25;5.00;;;;;;;1.80;51.28;101245.59;4987150;28;20506;-81
2022/02/22 03:18:08;;;;;;;18.95;3.05;;;;;;;2.00;50.24;101247.31;4962665;28;20523;-81
2022/02/22 03:20:35;;;;;;;26.45;3.22;;;;;;;2.04;49.88;101246.47;4975827;28;20022;-78
2022/02/22 03:23:01;;;;;;;16.25;2.80;;;;;;;1.94;49.78;101249.03;4976927;28;20045;-80
2022/02/22 03:25:28;;;;;;;22.30;2.25;;;;;;;2.07;48.92;101244.78;4994559;28;20034;-80
2022/02/22 03:27:54;;;;;;;15.43;2.72;;;;;;;1.58;49.61;101244.66;4982994;28;20042;-79
2022/02/22 03:30:20;;;;;;;23.13;2.53;;;;;;;1.74;49.28;101250.72;4978062;28;20026;-81
2022/02/22 03:32:46;;;;;;;26.75;3.80;;;;;;;1.56;49.36;101269.56;4976847;28;20042;-81
2022/02/22 03:35:12;;;;;;;22.40;2.97;;;;;;;1.81;48.66;101273.06;4966848;28;20037;-81
2022/02/22 03:37:37;;;;;;;18.75;3.05;;;;;;;1.94;48.39;101277.41;4992722;28;20065;-80
2022/02/22 03:40:03;;;;;;;22.05;2.28;;;;;;;1.82;48.82;101276.50;4995891;28;20318;-81
2022/02/22 03:42:29;;;;;;;22.23;2.42;;;;;;;1.98;48.61;101283.44;4958496;28;20511;-80
2022/02/22 03:44:54;;;;;;;26.08;2.17;;;;;;;1.91;48.16;101282.56;4978317;28;20044;-80
2022/02/22 03:47:20;;;;;;;14.82;3.00;;;;;;;1.31;48.61;101271.13;4975368;28;20034;-81
2022/02/22 03:49:45;;;;;;;15.18;2.42;;;;;;;1.73;47.58;101290.25;4995311;28;20030;-80
2022/02/22 03:52:11;;;;;;;14.45;1.92;;;;;;;1.96;46.72;101282.56;4978322;28;20508;-81
2022/02/22 03:54:36;;;;;;;29.33;2.25;;;;;;;2.00;45.79;101283.41;4990088;28;20038;-81
2022/02/22 03:57:02;;;;;;;12.45;2.03;;;;;;;1.87;45.11;101283.41;4979029;28;20037;-80
2022/02/22 03:59:28;;;;;;;10.98;0.82;;;;;;;1.28;45.94;101291.69;4993936;28;20532;-81
2022/02/22 04:01:55;;;;;;;20.73;1.58;;;;;;;1.78;45.41;101277.38;4988487;28;20097;-81
2022/02/22 04:04:21;;;;;;;15.95;1.65;;;;;;;1.74;45.44;101284.22;5001212;28;20575;-78
2022/02/22 04:06:46;;;;;;;14.73;1.55;;;;;;;1.76;45.80;101295.41;4969413;28;20033;-79
2022/02/22 04:09:12;;;;;;;24.85;2.75;;;;;;;2.07;45.22;101290.31;4976695;28;20057;-80
2022/02/22 04:11:37;;;;;;;20.80;1.65;;;;;;;1.84;46.36;101292.81;4982706;28;20035;-80
2022/02/22 04:14:03;;;;;;;13.93;1.60;;;;;;;1.83;46.28;101299.69;4993513;28;20081;-79
2022/02/22 04:16:28;;;;;;;22.98;2.17;;;;;;;1.83;46.27;101307.44;4997267;28;20527;-79
2022/02/22 04:18:54;;;;;;;20.27;2.30;;;;;;;1.74;46.07;101312.56;4982095;28;20116;-79
2022/02/22 04:21:19;;;;;;;21.73;1.90;;;;;;;2.04;45.60;101313.50;4998739;28;20030;-79
2022/02/22 04:23:45;;;;;;;13.50;1.15;;;;;;;1.80;46.01;101309.16;4986072;28;20035;-77
2022/02/22 04:26:11;;;;;;;10.38;1.67;;;;;;;1.47;46.88;101318.47;4987860;28;20037;-79
2022/02/22 04:28:36;;;;;;;14.35;1.67;;;;;;;1.66;47.09;101311.66;4982238;28;20046;-81
2022/02/22 04:31:02;;;;;;;21.67;2.13;;;;;;;1.72;47.52;101311.69;4992130;28;20041;-78
2022/02/22 04:33:27;;;;;;;9.52;1.95;;;;;;;2.01;47.09;101322.09;4979278;28;20069;-79
2022/02/22 04:35:53;;;;;;;17.65;2.13;;;;;;;1.72;48.02;101320.28;5004124;28;20029;-78
2022/02/22 04:38:18;;;;;;;17.55;1.83;;;;;;;2.17;47.02;101319.56;4978771;28;20643;-80
2022/02/22 04:40:44;;;;;;;18.90;1.83;;;;;;;2.13;47.32;101321.25;4982832;28;20036;-80
2022/02/22 04:43:09;;;;;;;20.38;1.23;;;;;;;1.92;47.76;101330.66;4982784;28;20263;-81
2022/02/22 04:45:35;;;;;;;22.13;3.53;;;;;;;2.06;48.03;101325.53;4999626;28;20196;-79
2022/02/22 04:48:00;;;;;;;25.65;2.47;;;;;;;2.32;47.56;101323.03;4996805;28;20041;-80
2022/02/22 04:50:26;;;;;;;14.73;1.65;;;;;;;2.09;48.42;101335.03;4981999;28;20129;-81
2022/02/22 04:52:52;;;;;;;25.90;3.00;;;;;;;2.18;48.52;101345.38;4982036;28;20080;-82
2022/02/22 04:55:18;;;;;;;25.02;2.83;;;;;;;2.45;47.76;101338.53;5004184;28;20530;-78
2022/02/22 04:57:44;;;;;;;14.38;2.65;;;;;;;2.39;48.04;101338.53;4980564;28;20042;-78
2022/02/22 05:00:12;;;;;;;21.08;2.92;;;;;;;2.36;48.39;101326.47;4998266;28;20044;-81
2022/02/22 05:02:38;;;;;;;19.38;2.95;;;;;;;2.35;48.80;101324.75;4986805;28;20052;-78
2022/02/22 05:05:04;;;;;;;16.88;2.28;;;;;;;2.39;48.51;101333.38;4996538;28;20041;-80
2022/02/22 05:07:30;;;;;;;24.75;2.03;;;;;;;1.75;50.90;101334.88;4952013;28;20042;-80
2022/02/22 05:09:55;;;;;;;25.85;2.13;;;;;;;1.74;51.31;101335.75;4978078;28;20030;-78
2022/02/22 05:12:21;;;;;;;22.02;2.30;;;;;;;2.18;50.24;101334.19;5002141;28;20092;-79
2022/02/22 05:14:46;;;;;;;23.30;2.45;;;;;;;2.28;49.76;101326.44;4996626;28;20072;-79
2022/02/22 05:17:12;;;;;;;18.52;2.03;;;;;;;2.13;50.12;101329.00;4988248;28;20030;-79
2022/02/22 05:19:37;;;;;;;24.33;2.00;;;;;;;2.16;50.42;101341.91;4981363;28;20027;-80
2022/02/22 05:22:03;;;;;;;16.88;2.42;;;;;;;2.28;49.81;101341.06;4981222;28;20042;-79
2022/02/22 05:24:29;;;;;;;17.40;2.33;;;;;;;1.97;50.87;101340.13;4979925;28;20043;-78
2022/02/22 05:26:54;;;;;;;18.15;2.67;;;;;;;2.10;50.50;101341.91;5003802;28;20042;-79
2022/02/22 05:29:19;;;;;;;14.63;1.48;;;;;;;2.11;50.48;101339.34;5003649;28;20037;-79
2022/02/22 05:31:45;;;;;;;18.27;2.53;;;;;;;2.30;49.53;101344.53;4996522;28;20040;-81
2022/02/22 05:34:11;;;;;;;20.60;2.15;;;;;;;1.90;51.03;101355.56;4954973;28;20591;-78
2022/02/22 05:36:36;;;;;;;9.27;1.73;;;;;;;2.18;50.16;101344.50;4989588;28;20057;-79
2022/02/22 05:39:03;;;;;;;17.05;2.03;;;;;;;2.01;50.68;101352.19;4994372;28;20037;-77
2022/02/22 05:41:29;;;;;;;24.27;2.65;;;;;;;2.17;50.29;101358.25;4979644;28;20257;-82
2022/02/22 05:43:55;;;;;;;24.85;2.28;;;;;;;1.93;51.23;101341.88;4978792;28;20581;-81
2022/02/22 05:46:20;;;;;;;19.52;3.22;;;;;;;2.04;50.86;101347.91;4981673;28;20033;-81
2022/02/22 05:48:46;;;;;;;21.73;2.35;;;;;;;1.85;51.42;101346.97;4979916;28;20054;-79
2022/02/22 05:51:13;;;;;;;9.55;1.52;;;;;;;1.92;51.64;101343.56;4982300;28;20030;-79
2022/02/22 05:53:38;;;;;;;20.13;3.00;;;;;;;2.16;50.72;101351.38;5000609;28;20037;-79
2022/02/22 05:56:04;;;;;;;12.80;2.25;;;;;;;1.95;51.25;101358.16;4980908;28;20045;-78
2022/02/22 05:58:30;;;;;;;23.90;2.90;;;;;;;2.14;50.68;101356.53;5003275;28;20064;-80
2022/02/22 06:00:55;;;;;;;14.90;1.65;;;;;;;2.02;50.79;101359.94;4982338;28;20034;-81
2022/02/22 06:03:21;;;;;;;29.40;4.32;;;;;;;1.83;51.40;101358.13;4972395;28;20143;-78
2022/02/22 06:05:47;;;;;;;24.45;3.60;;;;;;;1.69;51.28;101353.78;4969347;28;20034;-79
2022/02/22 06:08:12;;;;;;;15.18;1.85;;;;;;;2.07;49.77;101355.66;4995030;28;20093;-78
2022/02/22 06:10:38;;;;;;;36.22;1.77;;;;;;;2.14;49.55;101356.53;4994413;28;20045;-79
2022/02/22 06:13:03;;;;;;;19.73;2.05;;;;;;;1.67;50.83;101362.38;4992591;28;20040;-78
2022/02/22 06:15:29;;;;;;;12.27;1.98;;;;;;;2.01;49.77;101368.50;4988203;28;20042;-80
2022/02/22 06:17:54;;;;;;;22.10;2.17;;;;;;;1.85;50.31;101377.91;4996116;28;20041;-79
2022/02/22 06:20:20;;;;;;;18.92;1.85;;;;;;;2.04;49.60;101378.84;5001057;28;20454;-79
2022/02/22 06:22:46;;;;;;;20.05;3.45;;;;;;;1.80;50.54;101389.06;4978007;28;20124;-79
2022/02/22 06:25:12;;;;;;;23.20;2.28;;;;;;;1.78;50.78;101386.47;4992753;28;20037;-79
2022/02/22 06:27:49;;;;;;;30.75;1.98;;;;;;;1.84;50.71;101399.41;4980403;28;20057;-78
2022/02/22 06:30:15;;;;;;;17.13;1.38;;;;;;;1.74;50.83;101389.88;4979575;28;20065;-81
2022/02/22 06:32:41;;;;;;;21.02;2.30;;;;;;;1.76;50.69;101395.91;4976557;28;20046;-81
2022/02/22 06:35:07;;;;;;;20.92;2.22;;;;;;;1.80;50.46;101389.91;4963608;28;20048;-79
2022/02/22 06:37:33;;;;;;;9.73;1.13;;;;;;;1.81;49.94;101393.34;4979227;28;20042;-81
2022/02/22 06:39:59;;;;;;;14.85;1.75;;;;;;;1.86;49.63;101384.81;4964253;28;20049;-81
2022/02/22 06:42:24;;;;;;;15.30;1.75;;;;;;;1.78;49.71;101383.03;4978050;28;20038;-79
2022/02/22 06:44:50;;;;;;;20.10;2.05;;;;;;;1.58;49.95;101382.94;4981161;28;20435;-79
2022/02/22 06:47:16;;;;;;;25.65;3.42;;;;;;;1.84;49.01;101389.09;4974312;28;20631;-78
2022/02/22 06:49:41;;;;;;;13.60;2.10;;;;;;;1.88;48.61;101385.63;4997065;28;20026;-80
2022/02/22 06:52:07;;;;;;;14.60;1.23;;;;;;;2.00;48.40;101383.97;4953353;28;20381;-78
2022/02/22 06:54:33;;;;;;;23.70;1.55;;;;;;;1.90;48.75;101386.50;4975767;28;20034;-78
2022/02/22 06:56:58;;;;;;;16.15;1.23;;;;;;;1.96;49.18;101384.84;4948703;28;20041;-79
2022/02/22 06:59:24;;;;;;;11.00;1.67;;;;;;;2.07;48.57;101383.16;4984030;28;20113;-79
2022/02/22 07:01:49;;;;;;;12.38;1.50;;;;;;;2.18;48.53;101381.47;4981235;28;20034;-78
2022/02/22 07:04:15;;;;;;;23.05;1.90;;;;;;;2.25;48.47;101390.09;4967274;28;20037;-80
2022/02/22 07:06:41;;;;;;;12.57;1.73;;;;;;;2.25;48.54;101393.53;4979776;28;20107;-79
2022/02/22 07:09:06;;;;;;;15.15;2.30;;;;;;;2.28;48.70;101398.69;4979620;28;20145;-77
2022/02/22 07:11:32;;;;;;;15.15;2.30;;;;;;;2.55;48.38;101391.88;4963685;28;20034;-77
2022/02/22 07:13:58;;;;;;;16.77;1.75;;;;;;;2.59;48.63;101391.00;4973293;28;20581;-78
2022/02/22 07:16:24;;;;;;;13.23;2.17;;;;;;;2.69;47.82;101395.34;4979508;28;20035;-79
2022/02/22 07:18:49;;;;;;;25.95;3.83;;;;;;;2.81;47.87;101404.81;4991172;28;20037;-78
2022/02/22 07:21:16;;;;;;;13.68;1.77;;;;;;;2.66;48.13;101394.47;4977288;28;20042;-79
2022/02/22 07:23:41;;;;;;;26.23;2.47;;;;;;;2.85;47.49;101391.06;4975896;28;20096;-79
2022/02/22 07:26:07;;;;;;;18.40;2.45;;;;;;;2.83;47.83;101395.34;4981816;28;20049;-80
2022/02/22 07:28:32;;;;;;;17.20;2.33;;;;;;;3.06;47.49;101399.66;4984547;28;20034;-78
2022/02/22 07:30:58;;;;;;;7.18;1.80;;;;;;;3.04;47.50;101401.38;4979036;28;20350;-78
2022/02/22 07:33:23;;;;;;;20.52;1.40;;;;;;;3.24;47.11;101394.47;4995329;28;20034;-80
2022/02/22 07:35:49;;;;;;;17.75;2.20;;;;;;;3.33;47.40;101389.31;4978869;28;20034;-80
2022/02/22 07:38:15;;;;;;;25.17;2.72;;;;;;;3.51;46.89;101382.41;4976532;28;20049;-79
2022/02/22 07:40:41;;;;;;;28.13;3.15;;;;;;;3.73;46.75;101388.38;4982460;28;20203;-80
2022/02/22 07:43:07;;;;;;;15.80;2.33;;;;;;;3.72;46.00;101389.25;4995838;28;20042;-81
2022/02/22 07:45:32;;;;;;;13.27;1.30;;;;;;;4.63;45.80;101397.38;5001467;28;20033;-81
2022/02/22 07:48:00;;;;;;;26.65;2.42;;;;;;;5.99;42.93;101389.22;4968517;28;20053;-81
2022/02/22 07:50:26;;;;;;;12.93;1.70;;;;;;;5.55;41.56;101390.59;4978497;28;20033;-80
2022/02/22 07:52:52;;;;;;;19.75;2.20;;;;;;;5.38;42.50;101398.53;5000950;28;20073;-86
2022/02/22 07:55:18;;;;;;;15.60;2.10;;;;;;;5.78;41.91;101388.59;4985375;28;20037;-80
2022/02/22 07:57:44;;;;;;;17.05;2.88;;;;;;;7.60;40.50;101389.34;5001689;28;20064;-82
2022/02/22 08:03:30;;;;;;;14.13;2.53;;;;;;;7.80;37.74;101391.53;5007255;28;20046;-80
2022/02/22 08:05:56;;;;;;;18.88;2.13;;;;;;;7.85;37.76;101396.66;4973561;28;20049;-80
2022/02/22 08:08:22;;;;;;;18.48;2.00;;;;;;;6.81;39.92;101410.59;4977139;28;20037;-80
2022/02/22 08:10:47;;;;;;;10.30;1.27;;;;;;;6.37;40.71;101412.09;4981647;28;20555;-80
2022/02/22 08:13:13;;;;;;;14.63;3.08;;;;;;;6.16;42.25;101408.03;5010148;28;20054;-79
2022/02/22 08:15:39;;;;;;;17.08;1.73;;;;;;;5.87;42.47;101418.75;4992449;28;20030;-78
2022/02/22 08:18:05;;;;;;;26.80;1.95;;;;;;;5.99;42.15;101416.00;4973853;28;20033;-82
2022/02/22 08:20:31;;;;;;;15.85;2.10;;;;;;;5.65;43.75;101419.00;4998996;28;20049;-80
2022/02/22 08:22:57;;;;;;;17.60;1.75;;;;;;;5.45;43.96;101411.41;4953464;28;20144;-81
2022/02/22 08:25:23;;;;;;;20.40;2.92;;;;;;;5.69;42.81;101406.00;4997079;28;20573;-80
2022/02/22 08:27:48;;;;;;;14.70;2.47;;;;;;;5.16;44.78;101405.66;4999974;28;20084;-80
2022/02/22 08:30:14;;;;;;;18.10;2.88;;;;;;;5.14;45.32;101397.88;4988576;28;20113;-79
2022/02/22 08:32:40;;;;;;;10.98;2.65;;;;;;;5.88;44.60;101391.94;4981407;28;20053;-82
2022/02/22 08:35:06;;;;;;;16.20;2.08;;;;;;;6.72;41.54;101387.34;4983507;28;20030;-80
2022/02/22 08:37:32;;;;;;;22.02;2.35;;;;;;;6.22;42.53;101391.53;4993017;28;20042;-82
2022/02/22 08:39:57;;;;;;;15.30;1.92;;;;;;;5.98;42.84;101390.94;4965554;28;20037;-79
2022/02/22 08:42:23;;;;;;;17.90;1.98;;;;;;;6.70;41.99;101391.72;4980390;28;20045;-80
2022/02/22 08:44:49;;;;;;;12.68;2.60;;;;;;;7.63;40.09;101404.03;4977726;28;20452;-78
2022/02/22 08:47:14;;;;;;;19.60;1.73;;;;;;;7.30;40.14;101409.75;4983052;28;20045;-78
2022/02/22 08:49:41;;;;;;;17.35;1.88;;;;;;;8.17;40.50;101413.34;4992628;28;20217;-78
2022/02/22 08:52:07;;;;;;;17.58;2.47;;;;;;;8.35;39.79;101411.19;4972255;28;20464;-79
2022/02/22 08:54:32;;;;;;;21.90;2.20;;;;;;;8.73;38.59;101416.44;4977808;28;20033;-79
2022/02/22 08:56:58;;;;;;;16.10;2.70;;;;;;;8.35;39.62;101421.59;4972343;28;20051;-78
2022/02/22 08:59:24;;;;;;;20.25;2.25;;;;;;;8.65;38.84;101423.53;4975615;28;20033;-77
2022/02/22 09:01:49;;;;;;;17.58;1.20;;;;;;;8.48;37.91;101416.97;4978877;28;20038;-79
2022/02/22 09:04:15;;;;;;;21.15;2.25;;;;;;;7.76;39.78;101421.09;4990974;28;21600;-78
2022/02/22 09:06:40;;;;;;;24.17;2.22;;;;;;;8.57;38.88;101421.97;4977824;28;20037;-80
2022/02/22 09:09:06;;;;;;;15.40;1.67;;;;;;;8.09;40.59;101410.88;4968845;28;20034;-77
2022/02/22 09:11:31;;;;;;;19.88;2.33;;;;;;;8.38;40.23;101393.78;4993192;28;20034;-78
2022/02/22 09:13:57;;;;;;;21.30;2.15;;;;;;;8.23;40.80;101389.78;4984079;28;20045;-77
2022/02/22 09:16:23;;;;;;;22.13;3.83;;;;;;;7.38;41.54;101382.75;4991484;28;20436;-78
2022/02/22 09:18:48;;;;;;;20.52;3.35;;;;;;;7.99;41.23;101376.38;4990662;28;20053;-78
2022/02/22 09:21:14;;;;;;;23.80;2.88;;;;;;;6.76;44.33;101363.03;4997491;28;20093;-80
2022/02/22 09:23:40;;;;;;;19.55;2.05;;;;;;;6.12;44.48;101370.00;4985083;28;20067;-76
2022/02/22 09:26:05;;;;;;;15.77;1.80;;;;;;;5.80;44.84;101357.47;4975802;28;20113;-79
2022/02/22 09:28:31;;;;;;;15.77;1.90;;;;;;;5.40;47.30;101363.09;4987172;28;20045;-81
2022/02/22 09:30:56;;;;;;;12.93;2.55;;;;;;;5.40;47.02;101373.47;4973464;28;20033;-80
2022/02/22 09:33:22;;;;;;;15.95;2.05;;;;;;;5.71;45.63;101373.13;4987164;28;20045;-78
2022/02/22 09:35:48;;;;;;;13.52;2.25;;;;;;;5.48;46.83;101370.78;4990464;28;20037;-80
2022/02/22 09:38:13;;;;;;;23.08;2.78;;;;;;;5.51;46.60;101373.34;4981104;28;20045;-81
2022/02/22 09:40:40;;;;;;;20.25;1.88;;;;;;;5.57;47.35;101381.03;4984788;28;20121;-80
2022/02/22 09:43:06;;;;;;;21.88;2.58;;;;;;;4.67;48.19;101373.19;4969285;28;20046;-76
2022/02/22 09:45:31;;;;;;;24.13;2.00;;;;;;;4.81;48.08;101380.84;4995296;28;20037;-79
2022/02/22 09:48:01;;;;;;;10.48;2.15;;;;;;;4.96;47.63;101373.00;4973895;28;20048;-75
2022/02/22 09:50:27;;;;;;;17.90;1.98;;;;;;;4.81;48.12;101368.78;4987996;28;20465;-77
2022/02/22 09:52:53;;;;;;;16.45;1.67;;;;;;;5.49;46.25;101375.97;4994456;28;20077;-77
2022/02/22 09:55:19;;;;;;;11.15;1.60;;;;;;;5.41;47.02;101370.00;4991837;28;20033;-80
2022/02/22 09:57:45;;;;;;;20.85;1.60;;;;;;;5.40;47.19;101368.28;4981391;28;20528;-78
2022/02/22 10:00:20;;;;;;;11.40;1.67;;;;;;;5.67;46.97;101361.94;4969705;28;20025;-79
2022/02/22 10:02:46;;;;;;;18.38;1.70;;;;;;;5.49;46.71;101363.00;5004875;28;20049;-78
2022/02/22 10:05:16;;;;;;;9.98;1.85;;;;;;;5.49;46.97;101357.81;4978835;28;20034;-79
2022/02/22 10:07:55;;;;;;;15.50;2.75;;;;;;;5.85;45.54;101350.47;4966767;28;20043;-79
2022/02/22 10:10:39;;;;;;;13.57;1.15;;;;;;;5.36;46.68;101344.13;5000030;28;20639;-79
2022/02/22 10:13:07;;;;;;;15.48;1.25;;;;;;;4.72;48.07;101347.28;4979219;28;20065;-82
2022/02/22 10:15:41;;;;;;;16.02;2.00;;;;;;;5.06;48.02;101342.72;4987774;28;20033;-79
2022/02/22 10:18:08;;;;;;;7.05;1.35;;;;;;;4.93;48.04;101356.66;4969022;28;20042;-80
2022/02/22 10:20:34;;;;;;;14.80;2.05;;;;;;;5.36;47.28;101359.66;5003079;28;20531;-79
2022/02/22 10:23:02;;;;;;;14.02;1.50;;;;;;;5.24;46.59;101358.06;4994181;28;20479;-79
2022/02/22 10:25:28;;;;;;;13.05;1.42;;;;;;;5.51;46.82;101355.22;4966044;28;20052;-79
2022/02/22 10:28:00;;;;;;;18.60;2.40;;;;;;;5.32;47.16;101345.00;4987496;28;20156;-79
2022/02/22 10:30:38;;;;;;;17.50;2.10;;;;;;;4.62;48.45;101341.31;4984478;28;20105;-81
2022/02/22 10:33:27;;;;;;;19.67;2.85;;;;;;;4.50;48.06;101341.38;4948091;28;20049;-79
2022/02/22 10:36:04;;;;;;;16.83;1.65;;;;;;;4.67;48.27;101324.00;4972243;28;20045;-77
2022/02/22 10:38:33;;;;;;;21.30;2.15;;;;;;;4.25;49.63;101309.66;4939468;28;20137;-80
2022/02/22 10:41:05;;;;;;;6.13;1.08;;;;;;;4.49;50.08;101303.44;4984651;28;20094;-80
2022/02/22 10:43:33;;;;;;;10.95;2.42;;;;;;;4.38;50.82;101293.16;4984048;28;20033;-77
2022/02/22 10:46:02;;;;;;;17.05;1.65;;;;;;;4.69;50.09;101286.00;4975018;28;21783;-78
2022/02/22 10:48:29;;;;;;;18.55;1.80;;;;;;;4.50;50.31;101285.31;4981361;28;20045;-81
2022/02/22 10:50:56;;;;;;;17.45;2.22;;;;;;;4.82;50.13;101287.63;5002744;28;20038;-79
2022/02/22 10:53:34;;;;;;;11.52;1.88;;;;;;;5.26;48.79;101288.09;4949447;28;20488;-78
2022/02/22 10:56:03;;;;;;;12.35;2.03;;;;;;;4.80;49.73;101272.97;4988284;28;20033;-78
2022/02/22 10:58:28;;;;;;;26.48;2.35;;;;;;;4.41;50.55;101275.06;4978246;28;20160;-78
2022/02/22 11:00:54;;;;;;;7.15;1.10;;;;;;;4.28;50.87;101273.41;4981152;28;20048;-79
2022/02/22 11:03:20;;;;;;;14.68;1.63;;;;;;;4.96;49.68;101263.34;4979291;28;20041;-77
2022/02/22 11:05:50;;;;;;;12.13;1.50;;;;;;;5.21;49.08;101257.03;5002559;28;20061;-79
2022/02/22 11:08:24;;;;;;;9.88;2.65;;;;;;;3.97;50.55;101253.78;4981318;28;20040;-78
2022/02/22 11:10:55;;;;;;;21.30;1.73;;;;;;;4.32;50.75;101262.16;5001318;28;20045;-78
2022/02/22 11:13:27;;;;;;;19.55;1.27;;;;;;;4.98;49.61;101254.69;4956036;28;20037;-79
2022/02/22 11:15:53;;;;;;;10.88;1.70;;;;;;;4.68;49.67;101248.06;4968907;28;20110;-78
2022/02/22 11:18:24;;;;;;;12.95;1.00;;;;;;;5.20;48.35;101236.31;4964376;28;20631;-79
2022/02/22 11:20:51;;;;;;;11.82;1.27;;;;;;;5.18;47.69;101225.09;4968878;28;20084;-78
2022/02/22 11:23:28;;;;;;;14.32;0.90;;;;;;;4.94;48.22;101224.50;4990018;28;20493;-80
2022/02/22 11:26:08;;;;;;;12.63;1.10;;;;;;;4.17;50.03;101224.34;4983603;28;20044;-77